sensor_id;sensor_type;location;lat;lon;timestamp;P1;durP1;ratioP1;P2;durP2;ratioP2
69410;SDS011;56604;48.652;9.194;2023-04-25T00:01:37;3.03;;;2.87;;
69410;SDS011;56604;48.652;9.194;2023-04-25T00:04:03;3.50;;;2.90;;
69410;SDS011;56604;48.652;9.194;2023-04-25T00:06:30;3.20;;;2.90;;
69410;SDS011;56604;48.652;9.194;2023-04-25T00:08:57;3.30;;;2.70;;
69410;SDS011;56604;48.652;9.194;2023-04-25T00:11:22;2.63;;;2.50;;
69410;SDS011;56604;48.652;9.194;2023-04-25T00:13:48;3.50;;;2.70;;
69410;SDS011;56604;48.652;9.194;2023-04-25T00:16:15;2.90;;;2.70;;
69410;SDS011;56604;48.652;9.194;2023-04-25T00:18:41;4.00;;;2.70;;
69410;SDS011;56604;48.652;9.194;2023-04-25T00:21:07;2.60;;;2.43;;
69410;SDS011;56604;48.652;9.194;2023-04-25T00:23:33;3.27;;;3.07;;
69410;SDS011;56604;48.652;9.194;2023-04-25T00:26:00;3.10;;;2.90;;
69410;SDS011;56604;48.652;9.194;2023-04-25T00:28:26;2.97;;;2.77;;
69410;SDS011;56604;48.652;9.194;2023-04-25T00:30:51;3.00;;;2.83;;
69410;SDS011;56604;48.652;9.194;2023-04-25T00:33:16;3.53;;;3.23;;
69410;SDS011;56604;48.652;9.194;2023-04-25T00:35:42;3.17;;;2.87;;
69410;SDS011;56604;48.652;9.194;2023-04-25T00:38:07;2.73;;;2.53;;
69410;SDS011;56604;48.652;9.194;2023-04-25T00:40:32;4.40;;;3.33;;
69410;SDS011;56604;48.652;9.194;2023-04-25T00:42:58;2.83;;;2.73;;
69410;SDS011;56604;48.652;9.194;2023-04-25T00:45:24;3.73;;;3.37;;
69410;SDS011;56604;48.652;9.194;2023-04-25T00:47:53;3.13;;;3.03;;
69410;SDS011;56604;48.652;9.194;2023-04-25T00:50:19;2.77;;;2.63;;
69410;SDS011;56604;48.652;9.194;2023-04-25T00:52:44;3.37;;;3.07;;
69410;SDS011;56604;48.652;9.194;2023-04-25T00:55:10;6.40;;;3.10;;
69410;SDS011;56604;48.652;9.194;2023-04-25T00:57:37;2.97;;;2.77;;
69410;SDS011;56604;48.652;9.194;2023-04-25T01:00:04;5.90;;;2.50;;
69410;SDS011;56604;48.652;9.194;2023-04-25T01:02:31;2.70;;;2.60;;
69410;SDS011;56604;48.652;9.194;2023-04-25T01:04:57;5.07;;;2.90;;
69410;SDS011;56604;48.652;9.194;2023-04-25T01:07:23;4.67;;;2.60;;
69410;SDS011;56604;48.652;9.194;2023-04-25T01:09:48;2.83;;;2.73;;
69410;SDS011;56604;48.652;9.194;2023-04-25T01:12:16;3.80;;;3.00;;
69410;SDS011;56604;48.652;9.194;2023-04-25T01:14:41;2.90;;;2.70;;
69410;SDS011;56604;48.652;9.194;2023-04-25T01:17:06;5.50;;;2.90;;
69410;SDS011;56604;48.652;9.194;2023-04-25T01:19:33;5.33;;;2.90;;
69410;SDS011;56604;48.652;9.194;2023-04-25T01:21:59;3.17;;;2.80;;
69410;SDS011;56604;48.652;9.194;2023-04-25T01:24:24;2.53;;;2.43;;
69410;SDS011;56604;48.652;9.194;2023-04-25T01:26:50;3.00;;;2.90;;
69410;SDS011;56604;48.652;9.194;2023-04-25T01:29:17;2.73;;;2.63;;
69410;SDS011;56604;48.652;9.194;2023-04-25T01:31:43;7.03;;;3.07;;
69410;SDS011;56604;48.652;9.194;2023-04-25T01:34:09;2.90;;;2.80;;
69410;SDS011;56604;48.652;9.194;2023-04-25T01:36:35;3.17;;;3.00;;
69410;SDS011;56604;48.652;9.194;2023-04-25T01:39:00;2.60;;;2.50;;
69410;SDS011;56604;48.652;9.194;2023-04-25T01:41:27;3.23;;;2.93;;
69410;SDS011;56604;48.652;9.194;2023-04-25T01:43:52;4.20;;;3.33;;
69410;SDS011;56604;48.652;9.194;2023-04-25T01:46:18;4.07;;;3.23;;
69410;SDS011;56604;48.652;9.194;2023-04-25T01:48:43;3.27;;;3.07;;
69410;SDS011;56604;48.652;9.194;2023-04-25T01:51:08;4.90;;;3.57;;
69410;SDS011;56604;48.652;9.194;2023-04-25T01:53:36;3.67;;;3.37;;
69410;SDS011;56604;48.652;9.194;2023-04-25T01:56:01;3.40;;;3.10;;
69410;SDS011;56604;48.652;9.194;2023-04-25T01:58:27;4.77;;;3.57;;
69410;SDS011;56604;48.652;9.194;2023-04-25T02:00:52;3.60;;;3.30;;
69410;SDS011;56604;48.652;9.194;2023-04-25T02:03:17;3.13;;;2.73;;
69410;SDS011;56604;48.652;9.194;2023-04-25T02:05:43;3.37;;;3.07;;
69410;SDS011;56604;48.652;9.194;2023-04-25T02:08:08;3.90;;;3.60;;
69410;SDS011;56604;48.652;9.194;2023-04-25T02:10:34;4.70;;;3.40;;
69410;SDS011;56604;48.652;9.194;2023-04-25T02:13:00;3.03;;;2.93;;
69410;SDS011;56604;48.652;9.194;2023-04-25T02:15:26;9.87;;;3.50;;
69410;SDS011;56604;48.652;9.194;2023-04-25T02:17:51;3.57;;;3.27;;
69410;SDS011;56604;48.652;9.194;2023-04-25T02:20:20;3.20;;;3.00;;
69410;SDS011;56604;48.652;9.194;2023-04-25T02:22:46;10.53;;;3.10;;
69410;SDS011;56604;48.652;9.194;2023-04-25T02:25:12;4.00;;;3.00;;
69410;SDS011;56604;48.652;9.194;2023-04-25T02:27:37;6.60;;;3.73;;
69410;SDS011;56604;48.652;9.194;2023-04-25T02:30:04;3.80;;;3.50;;
69410;SDS011;56604;48.652;9.194;2023-04-25T02:32:31;4.10;;;3.80;;
69410;SDS011;56604;48.652;9.194;2023-04-25T02:34:56;4.93;;;3.20;;
69410;SDS011;56604;48.652;9.194;2023-04-25T02:37:24;3.83;;;3.50;;
69410;SDS011;56604;48.652;9.194;2023-04-25T02:39:50;5.47;;;3.90;;
69410;SDS011;56604;48.652;9.194;2023-04-25T02:42:15;3.57;;;3.27;;
69410;SDS011;56604;48.652;9.194;2023-04-25T02:44:40;4.03;;;3.63;;
69410;SDS011;56604;48.652;9.194;2023-04-25T02:47:06;3.80;;;3.50;;
69410;SDS011;56604;48.652;9.194;2023-04-25T02:49:31;4.13;;;3.60;;
69410;SDS011;56604;48.652;9.194;2023-04-25T02:51:56;3.30;;;3.10;;
69410;SDS011;56604;48.652;9.194;2023-04-25T02:54:22;8.90;;;3.60;;
69410;SDS011;56604;48.652;9.194;2023-04-25T02:56:47;5.57;;;3.30;;
69410;SDS011;56604;48.652;9.194;2023-04-25T02:59:12;3.00;;;2.80;;
69410;SDS011;56604;48.652;9.194;2023-04-25T03:01:38;3.20;;;2.80;;
69410;SDS011;56604;48.652;9.194;2023-04-25T03:04:03;3.20;;;2.90;;
69410;SDS011;56604;48.652;9.194;2023-04-25T03:06:28;3.23;;;3.00;;
69410;SDS011;56604;48.652;9.194;2023-04-25T03:08:54;3.23;;;3.03;;
69410;SDS011;56604;48.652;9.194;2023-04-25T03:11:19;4.00;;;3.70;;
69410;SDS011;56604;48.652;9.194;2023-04-25T03:13:45;6.00;;;3.57;;
69410;SDS011;56604;48.652;9.194;2023-04-25T03:16:10;3.30;;;3.00;;
69410;SDS011;56604;48.652;9.194;2023-04-25T03:18:36;5.30;;;3.40;;
69410;SDS011;56604;48.652;9.194;2023-04-25T03:21:01;3.80;;;3.43;;
69410;SDS011;56604;48.652;9.194;2023-04-25T03:23:27;3.80;;;3.07;;
69410;SDS011;56604;48.652;9.194;2023-04-25T03:25:52;3.00;;;2.90;;
69410;SDS011;56604;48.652;9.194;2023-04-25T03:28:17;5.60;;;3.00;;
69410;SDS011;56604;48.652;9.194;2023-04-25T03:30:43;5.83;;;3.10;;
69410;SDS011;56604;48.652;9.194;2023-04-25T03:33:08;4.43;;;2.90;;
69410;SDS011;56604;48.652;9.194;2023-04-25T03:35:33;2.97;;;2.80;;
69410;SDS011;56604;48.652;9.194;2023-04-25T03:37:58;3.07;;;2.87;;
69410;SDS011;56604;48.652;9.194;2023-04-25T03:40:24;8.90;;;3.67;;
69410;SDS011;56604;48.652;9.194;2023-04-25T03:42:49;3.43;;;3.23;;
69410;SDS011;56604;48.652;9.194;2023-04-25T03:45:15;5.20;;;3.40;;
69410;SDS011;56604;48.652;9.194;2023-04-25T03:47:40;4.73;;;3.87;;
69410;SDS011;56604;48.652;9.194;2023-04-25T03:50:05;7.27;;;4.70;;
69410;SDS011;56604;48.652;9.194;2023-04-25T03:52:31;33.10;;;19.43;;
69410;SDS011;56604;48.652;9.194;2023-04-25T03:54:56;31.17;;;18.20;;
69410;SDS011;56604;48.652;9.194;2023-04-25T03:57:22;24.30;;;12.27;;
69410;SDS011;56604;48.652;9.194;2023-04-25T03:59:47;13.70;;;9.47;;
69410;SDS011;56604;48.652;9.194;2023-04-25T04:02:12;4.90;;;4.50;;
69410;SDS011;56604;48.652;9.194;2023-04-25T04:04:37;3.80;;;3.50;;
69410;SDS011;56604;48.652;9.194;2023-04-25T04:07:03;6.87;;;3.93;;
69410;SDS011;56604;48.652;9.194;2023-04-25T04:09:28;7.87;;;3.77;;
69410;SDS011;56604;48.652;9.194;2023-04-25T04:11:53;3.07;;;2.97;;
69410;SDS011;56604;48.652;9.194;2023-04-25T04:14:19;6.50;;;3.30;;
69410;SDS011;56604;48.652;9.194;2023-04-25T04:16:44;3.80;;;2.80;;
69410;SDS011;56604;48.652;9.194;2023-04-25T04:19:10;3.23;;;2.93;;
69410;SDS011;56604;48.652;9.194;2023-04-25T04:21:35;6.57;;;3.60;;
69410;SDS011;56604;48.652;9.194;2023-04-25T04:24:01;3.83;;;3.37;;
69410;SDS011;56604;48.652;9.194;2023-04-25T04:26:26;5.10;;;3.07;;
69410;SDS011;56604;48.652;9.194;2023-04-25T04:28:52;9.47;;;3.40;;
69410;SDS011;56604;48.652;9.194;2023-04-25T04:31:19;3.13;;;2.93;;
69410;SDS011;56604;48.652;9.194;2023-04-25T04:33:46;4.43;;;3.07;;
69410;SDS011;56604;48.652;9.194;2023-04-25T04:36:11;5.13;;;3.00;;
69410;SDS011;56604;48.652;9.194;2023-04-25T04:38:37;7.53;;;3.63;;
69410;SDS011;56604;48.652;9.194;2023-04-25T04:41:03;3.53;;;3.37;;
69410;SDS011;56604;48.652;9.194;2023-04-25T04:43:28;5.27;;;3.50;;
69410;SDS011;56604;48.652;9.194;2023-04-25T04:45:54;4.40;;;4.00;;
69410;SDS011;56604;48.652;9.194;2023-04-25T04:48:21;4.63;;;3.83;;
69410;SDS011;56604;48.652;9.194;2023-04-25T04:50:46;4.20;;;3.90;;
69410;SDS011;56604;48.652;9.194;2023-04-25T04:53:12;5.90;;;3.07;;
69410;SDS011;56604;48.652;9.194;2023-04-25T04:55:38;6.07;;;3.60;;
69410;SDS011;56604;48.652;9.194;2023-04-25T04:58:03;6.30;;;3.20;;
69410;SDS011;56604;48.652;9.194;2023-04-25T05:00:28;4.53;;;2.93;;
69410;SDS011;56604;48.652;9.194;2023-04-25T05:02:54;3.80;;;2.83;;
69410;SDS011;56604;48.652;9.194;2023-04-25T05:05:20;7.47;;;3.00;;
69410;SDS011;56604;48.652;9.194;2023-04-25T05:07:45;3.37;;;3.07;;
69410;SDS011;56604;48.652;9.194;2023-04-25T05:10:11;3.50;;;2.80;;
69410;SDS011;56604;48.652;9.194;2023-04-25T05:12:36;3.30;;;3.00;;
69410;SDS011;56604;48.652;9.194;2023-04-25T05:15:01;4.40;;;3.17;;
69410;SDS011;56604;48.652;9.194;2023-04-25T05:17:26;7.43;;;2.97;;
69410;SDS011;56604;48.652;9.194;2023-04-25T05:19:52;5.70;;;2.83;;
69410;SDS011;56604;48.652;9.194;2023-04-25T05:22:17;4.37;;;3.00;;
69410;SDS011;56604;48.652;9.194;2023-04-25T05:24:43;3.70;;;2.80;;
69410;SDS011;56604;48.652;9.194;2023-04-25T05:27:08;5.80;;;3.13;;
69410;SDS011;56604;48.652;9.194;2023-04-25T05:29:33;6.20;;;2.67;;
69410;SDS011;56604;48.652;9.194;2023-04-25T05:32:00;3.23;;;2.90;;
69410;SDS011;56604;48.652;9.194;2023-04-25T05:34:25;4.60;;;3.30;;
69410;SDS011;56604;48.652;9.194;2023-04-25T05:36:50;2.83;;;2.70;;
69410;SDS011;56604;48.652;9.194;2023-04-25T05:39:16;4.47;;;3.33;;
69410;SDS011;56604;48.652;9.194;2023-04-25T05:41:42;5.03;;;3.33;;
69410;SDS011;56604;48.652;9.194;2023-04-25T05:44:07;5.17;;;3.33;;
69410;SDS011;56604;48.652;9.194;2023-04-25T05:46:33;4.30;;;3.10;;
69410;SDS011;56604;48.652;9.194;2023-04-25T05:48:58;7.53;;;3.27;;
69410;SDS011;56604;48.652;9.194;2023-04-25T05:51:24;2.97;;;2.37;;
69410;SDS011;56604;48.652;9.194;2023-04-25T05:53:49;7.60;;;3.47;;
69410;SDS011;56604;48.652;9.194;2023-04-25T05:56:14;3.40;;;3.10;;
69410;SDS011;56604;48.652;9.194;2023-04-25T05:58:40;5.00;;;3.30;;
69410;SDS011;56604;48.652;9.194;2023-04-25T06:01:05;3.40;;;3.20;;
69410;SDS011;56604;48.652;9.194;2023-04-25T06:03:30;3.10;;;2.90;;
69410;SDS011;56604;48.652;9.194;2023-04-25T06:05:55;3.43;;;3.13;;
69410;SDS011;56604;48.652;9.194;2023-04-25T06:08:21;4.53;;;3.10;;
69410;SDS011;56604;48.652;9.194;2023-04-25T06:10:46;4.60;;;3.63;;
69410;SDS011;56604;48.652;9.194;2023-04-25T06:13:11;6.00;;;4.30;;
69410;SDS011;56604;48.652;9.194;2023-04-25T06:15:37;5.73;;;3.70;;
69410;SDS011;56604;48.652;9.194;2023-04-25T06:18:02;3.73;;;3.00;;
69410;SDS011;56604;48.652;9.194;2023-04-25T06:20:27;3.73;;;2.87;;
69410;SDS011;56604;48.652;9.194;2023-04-25T06:22:53;3.67;;;3.23;;
69410;SDS011;56604;48.652;9.194;2023-04-25T06:25:18;3.03;;;2.93;;
69410;SDS011;56604;48.652;9.194;2023-04-25T06:27:44;4.70;;;3.70;;
69410;SDS011;56604;48.652;9.194;2023-04-25T06:30:10;4.83;;;4.03;;
69410;SDS011;56604;48.652;9.194;2023-04-25T06:32:37;3.43;;;3.13;;
69410;SDS011;56604;48.652;9.194;2023-04-25T06:35:02;6.00;;;4.40;;
69410;SDS011;56604;48.652;9.194;2023-04-25T06:37:28;4.43;;;4.13;;
69410;SDS011;56604;48.652;9.194;2023-04-25T06:39:54;4.30;;;3.70;;
69410;SDS011;56604;48.652;9.194;2023-04-25T06:42:19;3.60;;;3.40;;
69410;SDS011;56604;48.652;9.194;2023-04-25T06:44:45;5.63;;;3.63;;
69410;SDS011;56604;48.652;9.194;2023-04-25T06:47:10;8.33;;;3.67;;
69410;SDS011;56604;48.652;9.194;2023-04-25T06:49:35;5.50;;;4.37;;
69410;SDS011;56604;48.652;9.194;2023-04-25T06:52:00;4.10;;;3.80;;
69410;SDS011;56604;48.652;9.194;2023-04-25T06:54:26;3.20;;;3.00;;
69410;SDS011;56604;48.652;9.194;2023-04-25T06:56:53;3.50;;;3.20;;
69410;SDS011;56604;48.652;9.194;2023-04-25T06:59:19;3.70;;;3.40;;
69410;SDS011;56604;48.652;9.194;2023-04-25T07:01:44;6.77;;;3.50;;
69410;SDS011;56604;48.652;9.194;2023-04-25T07:04:10;5.73;;;3.47;;
69410;SDS011;56604;48.652;9.194;2023-04-25T07:06:35;4.27;;;3.87;;
69410;SDS011;56604;48.652;9.194;2023-04-25T07:09:03;4.03;;;3.63;;
69410;SDS011;56604;48.652;9.194;2023-04-25T07:11:28;3.60;;;3.27;;
69410;SDS011;56604;48.652;9.194;2023-04-25T07:13:53;3.43;;;3.20;;
69410;SDS011;56604;48.652;9.194;2023-04-25T07:16:19;5.70;;;3.80;;
69410;SDS011;56604;48.652;9.194;2023-04-25T07:18:44;3.33;;;3.13;;
69410;SDS011;56604;48.652;9.194;2023-04-25T07:21:09;10.93;;;3.67;;
69410;SDS011;56604;48.652;9.194;2023-04-25T07:23:35;3.03;;;2.93;;
69410;SDS011;56604;48.652;9.194;2023-04-25T07:26:00;3.07;;;2.87;;
69410;SDS011;56604;48.652;9.194;2023-04-25T07:28:25;3.27;;;3.07;;
69410;SDS011;56604;48.652;9.194;2023-04-25T07:30:51;4.20;;;3.80;;
69410;SDS011;56604;48.652;9.194;2023-04-25T07:33:16;3.70;;;3.03;;
69410;SDS011;56604;48.652;9.194;2023-04-25T07:35:42;4.00;;;3.60;;
69410;SDS011;56604;48.652;9.194;2023-04-25T07:38:07;2.77;;;2.57;;
69410;SDS011;56604;48.652;9.194;2023-04-25T07:40:32;4.03;;;3.70;;
69410;SDS011;56604;48.652;9.194;2023-04-25T07:42:58;4.00;;;3.43;;
69410;SDS011;56604;48.652;9.194;2023-04-25T07:45:24;5.50;;;3.50;;
69410;SDS011;56604;48.652;9.194;2023-04-25T07:47:49;3.53;;;3.33;;
69410;SDS011;56604;48.652;9.194;2023-04-25T07:50:15;9.00;;;3.40;;
69410;SDS011;56604;48.652;9.194;2023-04-25T07:52:40;3.67;;;3.47;;
69410;SDS011;56604;48.652;9.194;2023-04-25T07:55:06;4.03;;;3.60;;
69410;SDS011;56604;48.652;9.194;2023-04-25T07:57:31;3.20;;;3.10;;
69410;SDS011;56604;48.652;9.194;2023-04-25T07:59:56;4.27;;;3.97;;
69410;SDS011;56604;48.652;9.194;2023-04-25T08:02:22;5.23;;;4.77;;
69410;SDS011;56604;48.652;9.194;2023-04-25T08:04:47;7.43;;;4.47;;
69410;SDS011;56604;48.652;9.194;2023-04-25T08:07:14;4.43;;;4.10;;
69410;SDS011;56604;48.652;9.194;2023-04-25T08:09:39;4.83;;;4.43;;
69410;SDS011;56604;48.652;9.194;2023-04-25T08:12:05;5.37;;;4.37;;
69410;SDS011;56604;48.652;9.194;2023-04-25T08:14:30;3.80;;;3.47;;
69410;SDS011;56604;48.652;9.194;2023-04-25T08:17:00;4.13;;;3.73;;
69410;SDS011;56604;48.652;9.194;2023-04-25T08:19:29;3.90;;;3.60;;
69410;SDS011;56604;48.652;9.194;2023-04-25T08:21:55;3.57;;;3.33;;
69410;SDS011;56604;48.652;9.194;2023-04-25T08:24:21;3.60;;;3.40;;
69410;SDS011;56604;48.652;9.194;2023-04-25T08:26:47;3.60;;;3.40;;
69410;SDS011;56604;48.652;9.194;2023-04-25T08:29:12;5.43;;;4.93;;
69410;SDS011;56604;48.652;9.194;2023-04-25T08:31:37;5.00;;;4.17;;
69410;SDS011;56604;48.652;9.194;2023-04-25T08:34:02;3.73;;;3.43;;
69410;SDS011;56604;48.652;9.194;2023-04-25T08:36:28;4.40;;;3.87;;
69410;SDS011;56604;48.652;9.194;2023-04-25T08:38:53;3.60;;;3.40;;
69410;SDS011;56604;48.652;9.194;2023-04-25T08:41:19;4.30;;;3.90;;
69410;SDS011;56604;48.652;9.194;2023-04-25T08:43:46;4.10;;;3.73;;
69410;SDS011;56604;48.652;9.194;2023-04-25T08:46:13;3.80;;;3.60;;
69410;SDS011;56604;48.652;9.194;2023-04-25T08:48:43;5.03;;;4.20;;
69410;SDS011;56604;48.652;9.194;2023-04-25T08:51:10;5.00;;;4.70;;
69410;SDS011;56604;48.652;9.194;2023-04-25T08:53:50;4.40;;;4.10;;
69410;SDS011;56604;48.652;9.194;2023-04-25T08:56:17;4.70;;;4.30;;
69410;SDS011;56604;48.652;9.194;2023-04-25T08:58:43;4.80;;;4.40;;
69410;SDS011;56604;48.652;9.194;2023-04-25T09:01:10;12.83;;;5.07;;
69410;SDS011;56604;48.652;9.194;2023-04-25T09:03:36;4.90;;;4.60;;
69410;SDS011;56604;48.652;9.194;2023-04-25T09:06:01;5.70;;;4.90;;
69410;SDS011;56604;48.652;9.194;2023-04-25T09:08:28;5.37;;;4.90;;
69410;SDS011;56604;48.652;9.194;2023-04-25T09:10:55;7.10;;;5.13;;
69410;SDS011;56604;48.652;9.194;2023-04-25T09:13:24;6.80;;;5.60;;
69410;SDS011;56604;48.652;9.194;2023-04-25T09:15:52;8.67;;;5.17;;
69410;SDS011;56604;48.652;9.194;2023-04-25T09:18:22;5.73;;;5.17;;
69410;SDS011;56604;48.652;9.194;2023-04-25T09:21:05;6.03;;;5.53;;
69410;SDS011;56604;48.652;9.194;2023-04-25T09:23:38;9.93;;;5.63;;
69410;SDS011;56604;48.652;9.194;2023-04-25T09:26:06;7.20;;;5.20;;
69410;SDS011;56604;48.652;9.194;2023-04-25T09:28:32;5.30;;;4.80;;
69410;SDS011;56604;48.652;9.194;2023-04-25T09:30:59;5.53;;;5.03;;
69410;SDS011;56604;48.652;9.194;2023-04-25T09:33:29;5.10;;;4.70;;
69410;SDS011;56604;48.652;9.194;2023-04-25T09:36:03;9.90;;;5.00;;
69410;SDS011;56604;48.652;9.194;2023-04-25T09:38:31;5.63;;;5.00;;
69410;SDS011;56604;48.652;9.194;2023-04-25T09:40:57;4.90;;;4.50;;
69410;SDS011;56604;48.652;9.194;2023-04-25T09:43:23;5.40;;;4.90;;
69410;SDS011;56604;48.652;9.194;2023-04-25T09:45:50;4.27;;;3.87;;
69410;SDS011;56604;48.652;9.194;2023-04-25T09:48:19;5.07;;;4.67;;
69410;SDS011;56604;48.652;9.194;2023-04-25T09:53:40;5.23;;;4.77;;
69410;SDS011;56604;48.652;9.194;2023-04-25T09:56:07;4.50;;;4.10;;
69410;SDS011;56604;48.652;9.194;2023-04-25T09:58:34;5.10;;;4.70;;
69410;SDS011;56604;48.652;9.194;2023-04-25T10:01:01;4.77;;;4.37;;
69410;SDS011;56604;48.652;9.194;2023-04-25T10:03:31;4.17;;;3.97;;
69410;SDS011;56604;48.652;9.194;2023-04-25T10:05:59;4.00;;;3.80;;
69410;SDS011;56604;48.652;9.194;2023-04-25T10:08:28;3.07;;;2.90;;
69410;SDS011;56604;48.652;9.194;2023-04-25T10:11:00;3.70;;;3.23;;
69410;SDS011;56604;48.652;9.194;2023-04-25T10:13:28;2.23;;;2.23;;
69410;SDS011;56604;48.652;9.194;2023-04-25T10:15:55;3.63;;;3.43;;
69410;SDS011;56604;48.652;9.194;2023-04-25T10:18:22;2.80;;;2.70;;
69410;SDS011;56604;48.652;9.194;2023-04-25T10:20:49;2.30;;;2.20;;
69410;SDS011;56604;48.652;9.194;2023-04-25T10:23:15;1.70;;;1.67;;
69410;SDS011;56604;48.652;9.194;2023-04-25T10:25:41;1.60;;;1.60;;
69410;SDS011;56604;48.652;9.194;2023-04-25T10:28:07;1.97;;;1.87;;
69410;SDS011;56604;48.652;9.194;2023-04-25T10:30:33;1.53;;;1.53;;
69410;SDS011;56604;48.652;9.194;2023-04-25T10:32:58;1.50;;;1.50;;
69410;SDS011;56604;48.652;9.194;2023-04-25T10:35:28;1.53;;;1.43;;
69410;SDS011;56604;48.652;9.194;2023-04-25T10:38:09;1.13;;;1.13;;
69410;SDS011;56604;48.652;9.194;2023-04-25T10:40:36;1.60;;;1.50;;
69410;SDS011;56604;48.652;9.194;2023-04-25T10:45:59;1.10;;;1.10;;
69410;SDS011;56604;48.652;9.194;2023-04-25T10:48:28;1.00;;;1.00;;
69410;SDS011;56604;48.652;9.194;2023-04-25T10:51:11;3.77;;;1.13;;
69410;SDS011;56604;48.652;9.194;2023-04-25T10:53:40;0.80;;;0.80;;
69410;SDS011;56604;48.652;9.194;2023-04-25T10:56:09;1.03;;;1.03;;
69410;SDS011;56604;48.652;9.194;2023-04-25T10:58:35;1.13;;;1.03;;
69410;SDS011;56604;48.652;9.194;2023-04-25T11:01:01;1.13;;;1.13;;
69410;SDS011;56604;48.652;9.194;2023-04-25T11:03:26;0.90;;;0.90;;
69410;SDS011;56604;48.652;9.194;2023-04-25T11:05:52;0.87;;;0.87;;
69410;SDS011;56604;48.652;9.194;2023-04-25T11:08:21;1.80;;;0.90;;
69410;SDS011;56604;48.652;9.194;2023-04-25T11:11:02;0.80;;;0.80;;
69410;SDS011;56604;48.652;9.194;2023-04-25T11:13:30;0.80;;;0.80;;
69410;SDS011;56604;48.652;9.194;2023-04-25T11:15:55;2.00;;;0.70;;
69410;SDS011;56604;48.652;9.194;2023-04-25T11:18:21;0.90;;;0.90;;
69410;SDS011;56604;48.652;9.194;2023-04-25T11:20:47;2.70;;;2.60;;
69410;SDS011;56604;48.652;9.194;2023-04-25T11:23:13;2.90;;;2.70;;
69410;SDS011;56604;48.652;9.194;2023-04-25T11:25:38;1.40;;;1.30;;
69410;SDS011;56604;48.652;9.194;2023-04-25T11:28:04;0.90;;;0.90;;
69410;SDS011;56604;48.652;9.194;2023-04-25T11:30:29;2.63;;;0.90;;
69410;SDS011;56604;48.652;9.194;2023-04-25T11:32:55;0.80;;;0.80;;
69410;SDS011;56604;48.652;9.194;2023-04-25T11:35:21;0.70;;;0.70;;
69410;SDS011;56604;48.652;9.194;2023-04-25T11:37:48;0.80;;;0.80;;
69410;SDS011;56604;48.652;9.194;2023-04-25T11:40:14;1.73;;;0.90;;
69410;SDS011;56604;48.652;9.194;2023-04-25T11:42:43;1.17;;;0.80;;
69410;SDS011;56604;48.652;9.194;2023-04-25T11:45:09;0.90;;;0.90;;
69410;SDS011;56604;48.652;9.194;2023-04-25T11:47:35;1.40;;;1.40;;
69410;SDS011;56604;48.652;9.194;2023-04-25T11:50:01;2.00;;;1.90;;
69410;SDS011;56604;48.652;9.194;2023-04-25T11:52:36;2.07;;;2.07;;
69410;SDS011;56604;48.652;9.194;2023-04-25T11:55:01;2.07;;;2.00;;
69410;SDS011;56604;48.652;9.194;2023-04-25T11:57:30;2.83;;;2.63;;
69410;SDS011;56604;48.652;9.194;2023-04-25T12:00:04;4.10;;;3.70;;
69410;SDS011;56604;48.652;9.194;2023-04-25T12:02:31;3.87;;;2.90;;
69410;SDS011;56604;48.652;9.194;2023-04-25T12:04:58;2.83;;;2.73;;
69410;SDS011;56604;48.652;9.194;2023-04-25T12:07:28;3.53;;;2.83;;
69410;SDS011;56604;48.652;9.194;2023-04-25T12:09:55;2.13;;;2.10;;
69410;SDS011;56604;48.652;9.194;2023-04-25T12:12:20;1.70;;;1.70;;
69410;SDS011;56604;48.652;9.194;2023-04-25T12:14:46;2.53;;;2.43;;
69410;SDS011;56604;48.652;9.194;2023-04-25T12:17:16;4.90;;;4.53;;
69410;SDS011;56604;48.652;9.194;2023-04-25T12:19:41;2.50;;;2.40;;
69410;SDS011;56604;48.652;9.194;2023-04-25T12:22:22;2.70;;;2.50;;
69410;SDS011;56604;48.652;9.194;2023-04-25T12:24:48;2.10;;;2.10;;
69410;SDS011;56604;48.652;9.194;2023-04-25T12:27:15;3.00;;;2.80;;
69410;SDS011;56604;48.652;9.194;2023-04-25T12:29:49;2.80;;;2.20;;
69410;SDS011;56604;48.652;9.194;2023-04-25T12:32:16;3.00;;;2.70;;
69410;SDS011;56604;48.652;9.194;2023-04-25T12:34:42;3.03;;;2.83;;
69410;SDS011;56604;48.652;9.194;2023-04-25T12:37:07;3.00;;;2.90;;
69410;SDS011;56604;48.652;9.194;2023-04-25T12:39:32;2.97;;;2.77;;
69410;SDS011;56604;48.652;9.194;2023-04-25T12:41:58;3.60;;;3.30;;
69410;SDS011;56604;48.652;9.194;2023-04-25T12:44:24;2.63;;;2.53;;
69410;SDS011;56604;48.652;9.194;2023-04-25T12:46:49;3.07;;;2.87;;
69410;SDS011;56604;48.652;9.194;2023-04-25T12:49:15;3.73;;;3.40;;
69410;SDS011;56604;48.652;9.194;2023-04-25T12:51:40;3.20;;;3.00;;
69410;SDS011;56604;48.652;9.194;2023-04-25T12:54:06;4.83;;;2.80;;
69410;SDS011;56604;48.652;9.194;2023-04-25T12:56:33;3.27;;;3.07;;
69410;SDS011;56604;48.652;9.194;2023-04-25T12:58:59;2.80;;;2.60;;
69410;SDS011;56604;48.652;9.194;2023-04-25T13:01:25;5.83;;;2.20;;
69410;SDS011;56604;48.652;9.194;2023-04-25T13:03:51;3.53;;;3.33;;
69410;SDS011;56604;48.652;9.194;2023-04-25T13:06:17;7.63;;;3.37;;
69410;SDS011;56604;48.652;9.194;2023-04-25T13:08:43;3.63;;;3.30;;
69410;SDS011;56604;48.652;9.194;2023-04-25T13:11:09;3.80;;;3.57;;
69410;SDS011;56604;48.652;9.194;2023-04-25T13:13:34;4.00;;;3.70;;
69410;SDS011;56604;48.652;9.194;2023-04-25T13:16:00;3.40;;;3.20;;
69410;SDS011;56604;48.652;9.194;2023-04-25T13:18:27;5.00;;;3.07;;
69410;SDS011;56604;48.652;9.194;2023-04-25T13:20:53;3.57;;;3.27;;
69410;SDS011;56604;48.652;9.194;2023-04-25T13:23:18;3.47;;;3.27;;
69410;SDS011;56604;48.652;9.194;2023-04-25T13:25:45;3.83;;;3.50;;
69410;SDS011;56604;48.652;9.194;2023-04-25T13:28:10;3.47;;;3.27;;
69410;SDS011;56604;48.652;9.194;2023-04-25T13:30:36;3.27;;;3.00;;
69410;SDS011;56604;48.652;9.194;2023-04-25T13:33:01;3.47;;;3.27;;
69410;SDS011;56604;48.652;9.194;2023-04-25T13:35:28;3.33;;;3.00;;
69410;SDS011;56604;48.652;9.194;2023-04-25T13:37:54;3.20;;;2.97;;
69410;SDS011;56604;48.652;9.194;2023-04-25T13:40:20;4.33;;;3.30;;
69410;SDS011;56604;48.652;9.194;2023-04-25T13:42:45;4.10;;;3.70;;
69410;SDS011;56604;48.652;9.194;2023-04-25T13:45:11;4.17;;;3.73;;
69410;SDS011;56604;48.652;9.194;2023-04-25T13:47:36;3.27;;;3.00;;
69410;SDS011;56604;48.652;9.194;2023-04-25T13:50:02;5.83;;;3.33;;
69410;SDS011;56604;48.652;9.194;2023-04-25T13:52:28;3.43;;;3.10;;
69410;SDS011;56604;48.652;9.194;2023-04-25T13:54:54;3.67;;;3.47;;
69410;SDS011;56604;48.652;9.194;2023-04-25T13:57:19;3.57;;;3.27;;
69410;SDS011;56604;48.652;9.194;2023-04-25T13:59:45;3.77;;;3.47;;
69410;SDS011;56604;48.652;9.194;2023-04-25T14:02:11;4.90;;;4.10;;
69410;SDS011;56604;48.652;9.194;2023-04-25T14:04:37;4.77;;;4.37;;
69410;SDS011;56604;48.652;9.194;2023-04-25T14:07:02;5.80;;;3.97;;
69410;SDS011;56604;48.652;9.194;2023-04-25T14:09:28;5.27;;;4.30;;
69410;SDS011;56604;48.652;9.194;2023-04-25T14:11:53;10.63;;;5.20;;
69410;SDS011;56604;48.652;9.194;2023-04-25T14:14:20;6.73;;;4.70;;
69410;SDS011;56604;48.652;9.194;2023-04-25T14:16:46;6.93;;;4.80;;
69410;SDS011;56604;48.652;9.194;2023-04-25T14:19:16;4.90;;;4.50;;
69410;SDS011;56604;48.652;9.194;2023-04-25T14:21:42;5.97;;;5.07;;
69410;SDS011;56604;48.652;9.194;2023-04-25T14:24:08;10.10;;;5.00;;
69410;SDS011;56604;48.652;9.194;2023-04-25T14:26:34;6.40;;;4.70;;
69410;SDS011;56604;48.652;9.194;2023-04-25T14:29:01;8.10;;;5.50;;
69410;SDS011;56604;48.652;9.194;2023-04-25T14:31:26;5.63;;;5.00;;
69410;SDS011;56604;48.652;9.194;2023-04-25T14:33:52;7.73;;;6.40;;
69410;SDS011;56604;48.652;9.194;2023-04-25T14:36:18;7.10;;;5.60;;
69410;SDS011;56604;48.652;9.194;2023-04-25T14:38:43;7.47;;;5.87;;
69410;SDS011;56604;48.652;9.194;2023-04-25T14:41:09;10.30;;;6.10;;
69410;SDS011;56604;48.652;9.194;2023-04-25T14:43:34;6.70;;;5.70;;
69410;SDS011;56604;48.652;9.194;2023-04-25T14:46:01;9.23;;;6.50;;
69410;SDS011;56604;48.652;9.194;2023-04-25T14:48:27;6.53;;;5.83;;